Burlingham, New York
Current Conditions -  °F | °C
As of 12:54 AM on Sunday 26 Oct 2014 (Local Time) from KMGJ Reporting Station
Clear Clear  
Wind Chill: 53°   Ceiling: Unl
Heat Index: 53°   Visibility: 10mi
Dew Point: 44°   Wind: 6mph
Humidity: 71%   Direction: 270°W
Pressure: 29.55"   Gusts: NA
Location:  41.59°N, 74.38°W
Report Text: KMGJ 260454Z AUTO 27005KT 10SM CLR 12/07 A2955 RMK AO2 RAB0356E08 SLP006 P0000 T01170067 401890050 TSNO
Loading
Personal Weather Stations






























Interactive Weather Map
Tropical Storm Tracking
New forecast layout! Learn more

10-Day Weather Forecast

Advertisements
Track Severe Weather on mobile